San Carlos Park, Florida
Current Conditions -  °F | °C
As of 8:53 PM on Monday 20 Oct 2014 (Local Time) from KFMY Reporting Station
Broken Clouds Broken Clouds  
Wind Chill: 80°   Ceiling: 7500
Heat Index: 82°   Visibility: 10mi
Dew Point: 66°   Wind: 5mph
Humidity: 62%   Direction: 240°WSW
Pressure: 29.95"   Gusts: NA
Location:  26.6372°N, 81.8725°W
Report Text: KFMY 210053Z 24004KT 10SM FEW060 BKN075 27/19 A2995 RMK AO2 SLP144 T02670189
Loading
Personal Weather Stations






























Interactive Weather Map
Tropical Storm Tracking
New forecast layout! Learn more

10-Day Weather Forecast

Advertisements
Track Severe Weather on mobile